createdAt,value
2017-12-16T00:00:01.782Z,91.40
2017-12-16T00:02:31.234Z,91.40
2017-12-16T00:05:02.168Z,91.60
2017-12-16T00:07:32.788Z,92.00
2017-12-16T00:10:02.506Z,91.90
2017-12-16T00:12:36.280Z,91.70
2017-12-16T00:15:06.648Z,91.90
2017-12-16T00:17:38.136Z,91.60
2017-12-16T00:20:07.748Z,91.80
2017-12-16T00:22:39.255Z,91.70
2017-12-16T00:26:38.528Z,91.90
2017-12-16T00:29:11.416Z,91.70
2017-12-16T00:31:41.990Z,92.00
2017-12-16T00:34:12.679Z,92.20
2017-12-16T00:36:42.692Z,92.20
2017-12-16T00:39:12.841Z,92.00
2017-12-16T00:41:42.779Z,92.10
2017-12-16T00:44:12.904Z,92.20
2017-12-16T00:46:47.194Z,92.20
2017-12-16T00:49:17.296Z,92.20
2017-12-16T00:51:48.396Z,92.20
2017-12-16T00:54:18.105Z,92.10
2017-12-16T00:56:52.378Z,91.80
2017-12-16T00:59:29.329Z,91.60
2017-12-16T01:02:05.213Z,91.70
2017-12-16T01:04:38.443Z,91.40
2017-12-16T01:07:08.596Z,91.90
2017-12-16T01:09:43.616Z,91.80
2017-12-16T01:12:20.746Z,91.90
2017-12-16T01:14:52.542Z,91.70
2017-12-16T01:17:23.050Z,91.30
2017-12-16T01:19:56.355Z,91.30
2017-12-16T01:22:30.319Z,91.40
2017-12-16T01:25:03.546Z,91.20
2017-12-16T01:27:43.618Z,90.70
2017-12-16T01:30:23.829Z,90.70
2017-12-16T01:32:54.043Z,90.30
2017-12-16T01:36:31.620Z,90.60
2017-12-16T01:39:00.812Z,90.50
2017-12-16T01:41:30.711Z,90.00
2017-12-16T01:44:00.144Z,90.00
2017-12-16T01:46:31.335Z,90.10
2017-12-16T01:49:02.515Z,90.10
2017-12-16T01:51:31.936Z,90.10
2017-12-16T01:54:01.284Z,89.90
2017-12-16T01:56:30.528Z,89.40
2017-12-16T01:59:15.631Z,89.10
2017-12-16T02:01:44.974Z,89.10
2017-12-16T02:04:14.450Z,89.30
2017-12-16T02:06:43.892Z,89.30
2017-12-16T02:09:13.927Z,89.30
2017-12-16T02:11:45.396Z,89.30
2017-12-16T02:14:14.429Z,89.20
2017-12-16T02:16:45.773Z,89.90
2017-12-16T02:19:15.444Z,89.20
2017-12-16T02:21:44.977Z,88.30
2017-12-16T02:24:14.879Z,87.80
2017-12-16T02:26:45.225Z,87.70
2017-12-16T02:29:15.582Z,88.20
2017-12-16T02:31:45.366Z,86.80
2017-12-16T02:34:15.909Z,86.40
2017-12-16T02:37:09.542Z,86.10
2017-12-16T02:39:48.006Z,86.10
2017-12-16T02:42:26.350Z,85.90
2017-12-16T02:44:58.168Z,86.00
2017-12-16T02:47:27.469Z,85.70
2017-12-16T02:49:59.846Z,85.10
2017-12-16T02:52:29.606Z,85.10
2017-12-16T02:54:59.008Z,85.00
2017-12-16T02:57:30.614Z,85.40
2017-12-16T03:00:00.142Z,85.20
2017-12-16T03:02:30.435Z,85.60
2017-12-16T03:05:10.824Z,85.70
2017-12-16T03:07:48.384Z,85.70
2017-12-16T03:10:23.258Z,86.00
2017-12-16T03:12:53.774Z,86.20
2017-12-16T03:15:34.196Z,86.40
2017-12-16T03:18:13.440Z,86.40
2017-12-16T03:20:43.133Z,86.50
2017-12-16T03:23:20.479Z,86.50
2017-12-16T03:25:57.576Z,86.50
2017-12-16T03:28:42.873Z,86.70
2017-12-16T03:31:21.875Z,86.70
2017-12-16T03:34:14.184Z,86.90
2017-12-16T03:36:49.291Z,86.80
2017-12-16T03:39:20.096Z,86.60
2017-12-16T03:41:49.385Z,86.60
2017-12-16T03:44:28.719Z,87.40
2017-12-16T03:47:03.079Z,87.40
2017-12-16T03:49:34.054Z,87.30
2017-12-16T03:52:04.196Z,87.90
2017-12-16T03:54:39.505Z,87.70
2017-12-16T03:57:10.211Z,88.30
2017-12-16T03:59:45.100Z,88.20
2017-12-16T04:02:20.492Z,89.30
2017-12-16T04:04:52.073Z,88.70
2017-12-16T04:07:24.886Z,88.90
2017-12-16T04:09:56.704Z,89.30
2017-12-16T04:12:27.297Z,89.30
2017-12-16T04:14:56.805Z,89.60
2017-12-16T04:17:27.220Z,89.90
2017-12-16T04:19:56.487Z,90.00
2017-12-16T04:22:26.558Z,90.10
2017-12-16T04:24:59.669Z,90.10
2017-12-16T04:27:43.597Z,90.20
2017-12-16T04:30:12.813Z,90.30
2017-12-16T04:32:42.944Z,90.40
2017-12-16T04:35:12.209Z,90.60
2017-12-16T04:37:41.530Z,90.70
2017-12-16T04:40:12.047Z,90.80
2017-12-16T04:42:41.954Z,91.00
2017-12-16T04:45:11.349Z,91.00
2017-12-16T04:47:41.065Z,90.90
2017-12-16T04:50:10.155Z,91.20
2017-12-16T04:52:39.669Z,91.30
2017-12-16T04:55:09.060Z,91.40
2017-12-16T04:57:38.609Z,91.40
2017-12-16T05:00:09.521Z,91.40
2017-12-16T05:02:38.840Z,91.40
2017-12-16T05:05:08.249Z,91.40
2017-12-16T05:07:40.406Z,91.30
2017-12-16T05:10:10.669Z,91.30
2017-12-16T05:12:40.467Z,91.40
2017-12-16T05:15:10.980Z,91.20
2017-12-16T05:17:40.026Z,91.20
2017-12-16T05:20:10.781Z,91.30
2017-12-16T05:22:40.161Z,91.30
2017-12-16T05:25:09.301Z,91.40
2017-12-16T05:27:38.596Z,91.30
2017-12-16T05:30:10.748Z,91.70
2017-12-16T05:32:39.926Z,91.50
2017-12-16T05:35:09.082Z,91.70
2017-12-16T05:37:38.719Z,91.80
2017-12-16T05:40:08.196Z,92.20
2017-12-16T05:42:38.880Z,92.90
2017-12-16T05:45:17.498Z,92.90
2017-12-16T05:47:46.789Z,93.40
2017-12-16T05:50:17.003Z,93.80
2017-12-16T05:52:46.575Z,94.00
2017-12-16T05:55:25.906Z,94.60
2017-12-16T05:57:55.427Z,94.60
2017-12-16T06:00:29.806Z,94.40
2017-12-16T06:02:59.160Z,94.40
2017-12-16T06:05:28.574Z,94.80
2017-12-16T06:08:06.073Z,94.80
2017-12-16T06:10:36.227Z,94.60
2017-12-16T06:13:05.587Z,94.60
2017-12-16T06:15:43.383Z,94.60
2017-12-16T06:18:27.962Z,94.80
2017-12-16T06:21:00.911Z,94.60
2017-12-16T06:23:42.335Z,94.90
2017-12-16T06:26:11.991Z,94.90
2017-12-16T06:28:42.546Z,94.80
2017-12-16T06:31:12.495Z,94.80
2017-12-16T06:33:41.925Z,94.70
2017-12-16T06:36:11.947Z,94.60
2017-12-16T06:38:42.208Z,94.50
2017-12-16T06:41:12.032Z,94.60
2017-12-16T06:43:42.261Z,94.60
2017-12-16T06:46:11.858Z,94.30
2017-12-16T06:48:52.506Z,94.70
2017-12-16T06:51:34.433Z,94.60
2017-12-16T06:54:06.601Z,94.50
2017-12-16T06:56:41.244Z,94.40
2017-12-16T06:59:19.784Z,94.60
2017-12-16T07:01:50.647Z,94.50
2017-12-16T07:04:21.331Z,94.40
2017-12-16T07:06:50.938Z,94.40
2017-12-16T07:09:20.514Z,94.80
2017-12-16T07:11:56.209Z,94.50
2017-12-16T07:14:27.197Z,94.50
2017-12-16T07:16:58.941Z,94.50
2017-12-16T07:19:30.190Z,95.10
2017-12-16T07:22:03.576Z,94.60
2017-12-16T07:24:33.743Z,94.90
2017-12-16T07:27:03.125Z,94.90
2017-12-16T07:29:32.636Z,94.70
2017-12-16T07:32:03.613Z,94.70
2017-12-16T07:34:35.043Z,94.90
2017-12-16T07:37:04.475Z,94.80
2017-12-16T07:39:33.882Z,94.90
2017-12-16T07:42:03.344Z,94.90
2017-12-16T07:44:34.901Z,94.80
2017-12-16T07:47:07.187Z,94.70
2017-12-16T07:49:37.035Z,94.80
2017-12-16T07:52:06.080Z,94.80
2017-12-16T07:54:35.372Z,95.00
2017-12-16T07:57:05.621Z,94.80
2017-12-16T07:59:36.097Z,94.70
2017-12-16T08:02:06.208Z,94.60
2017-12-16T08:04:49.620Z,94.80
2017-12-16T08:07:22.047Z,94.70
2017-12-16T08:10:14.538Z,94.90
2017-12-16T08:12:45.237Z,94.90
2017-12-16T08:15:18.356Z,94.60
2017-12-16T08:17:47.623Z,94.60
2017-12-16T08:20:17.117Z,94.80
2017-12-16T08:22:46.838Z,94.90
2017-12-16T08:25:16.732Z,94.80
2017-12-16T08:27:45.799Z,94.60
2017-12-16T08:30:15.191Z,94.80
2017-12-16T08:32:45.780Z,94.60
2017-12-16T08:35:15.714Z,94.40
2017-12-16T08:37:45.568Z,94.60
2017-12-16T08:40:16.717Z,94.70
2017-12-16T08:42:46.177Z,94.70
2017-12-16T08:45:16.914Z,94.60
2017-12-16T08:47:46.333Z,94.80
2017-12-16T08:50:30.987Z,94.60
2017-12-16T08:53:17.999Z,94.50
2017-12-16T08:55:48.482Z,94.10
2017-12-16T08:58:17.610Z,94.10
2017-12-16T09:00:46.791Z,94.10
2017-12-16T09:03:20.300Z,93.80
2017-12-16T09:05:49.466Z,93.20
2017-12-16T09:08:29.948Z,93.10
2017-12-16T09:11:00.378Z,93.10
2017-12-16T09:13:30.108Z,93.30
2017-12-16T09:15:59.305Z,93.10
2017-12-16T09:18:28.959Z,93.00
2017-12-16T09:21:00.366Z,92.80
2017-12-16T09:23:30.532Z,92.80
2017-12-16T09:25:59.776Z,93.00
2017-12-16T09:28:29.651Z,92.90
2017-12-16T09:31:12.902Z,92.40
2017-12-16T09:33:48.938Z,92.30
2017-12-16T09:39:06.109Z,91.70
2017-12-16T09:41:36.128Z,91.10
2017-12-16T09:44:12.663Z,91.40
2017-12-16T09:46:41.786Z,91.10
2017-12-16T09:49:12.953Z,91.00
2017-12-16T09:51:42.221Z,91.00
2017-12-16T09:54:11.731Z,90.90
2017-12-16T10:01:38.087Z,90.60
2017-12-16T10:04:11.765Z,90.50
2017-12-16T10:06:41.537Z,90.30
2017-12-16T10:09:13.228Z,88.80
2017-12-16T10:11:56.215Z,87.90
2017-12-16T10:14:32.425Z,88.30
2017-12-16T10:17:02.069Z,88.40
2017-12-16T10:19:31.609Z,88.70
2017-12-16T10:22:01.166Z,89.90
2017-12-16T10:24:40.530Z,89.10
2017-12-16T10:30:18.772Z,89.90
2017-12-16T10:32:49.852Z,90.00
2017-12-16T10:35:21.165Z,90.30
2017-12-16T10:40:40.628Z,89.80
2017-12-16T10:43:12.257Z,89.30
2017-12-16T10:45:48.627Z,88.70
2017-12-16T10:48:24.374Z,87.50
2017-12-16T10:51:00.438Z,87.00
2017-12-16T10:53:31.472Z,86.30
2017-12-16T10:56:00.696Z,87.20
2017-12-16T10:58:33.387Z,87.30
2017-12-16T11:01:03.067Z,87.90
2017-12-16T11:03:36.813Z,88.70
2017-12-16T11:06:06.719Z,89.30
2017-12-16T11:08:37.412Z,90.00
2017-12-16T11:11:06.636Z,88.20
2017-12-16T11:13:37.259Z,87.70
2017-12-16T11:16:06.759Z,88.40
2017-12-16T11:18:36.167Z,87.10
2017-12-16T11:21:19.577Z,86.80
2017-12-16T11:23:58.096Z,86.20
2017-12-16T11:26:27.682Z,86.90
2017-12-16T11:28:57.023Z,87.80
2017-12-16T11:31:26.370Z,87.70
2017-12-16T11:33:56.528Z,86.10
2017-12-16T11:36:25.960Z,86.10
2017-12-16T11:38:55.269Z,85.60
2017-12-16T11:41:24.548Z,86.30
2017-12-16T11:43:54.569Z,85.70
2017-12-16T11:46:23.759Z,86.60
2017-12-16T11:48:52.814Z,86.80
2017-12-16T11:51:22.816Z,87.00
2017-12-16T11:53:52.116Z,87.00
2017-12-16T11:56:22.080Z,87.60
2017-12-16T11:58:51.355Z,88.00
2017-12-16T12:01:21.451Z,88.90
2017-12-16T12:04:02.285Z,88.70
2017-12-16T12:06:43.249Z,89.60
2017-12-16T12:09:12.560Z,89.60
2017-12-16T12:11:52.617Z,89.50
2017-12-16T12:14:22.425Z,89.00
2017-12-16T12:17:02.068Z,88.60
2017-12-16T12:19:42.259Z,87.50
2017-12-16T12:22:17.082Z,87.40
2017-12-16T12:24:46.487Z,86.70
2017-12-16T12:27:24.925Z,87.60
2017-12-16T12:30:04.126Z,88.10
2017-12-16T12:32:34.079Z,89.00
2017-12-16T12:35:04.245Z,88.60
2017-12-16T12:37:33.648Z,88.60
2017-12-16T12:40:02.714Z,88.40
2017-12-16T12:42:41.087Z,88.10
2017-12-16T12:45:10.774Z,88.10
2017-12-16T12:47:40.431Z,88.70
2017-12-16T12:50:11.094Z,88.60
2017-12-16T12:52:40.738Z,88.60
2017-12-16T12:55:10.273Z,88.60
2017-12-16T12:57:40.332Z,86.80
2017-12-16T13:00:09.601Z,86.80
2017-12-16T13:02:39.237Z,86.90
2017-12-16T13:05:08.688Z,88.00
2017-12-16T13:07:38.616Z,87.00
2017-12-16T13:10:08.720Z,86.70
2017-12-16T13:12:38.482Z,86.60
2017-12-16T13:15:07.817Z,87.60
2017-12-16T13:17:43.479Z,87.70
2017-12-16T13:20:21.770Z,88.10
2017-12-16T13:22:51.208Z,88.10
2017-12-16T13:25:21.419Z,89.00
2017-12-16T13:27:56.445Z,89.00
2017-12-16T13:30:31.701Z,88.50
2017-12-16T13:33:01.284Z,88.40
2017-12-16T13:35:34.176Z,88.70
2017-12-16T13:38:10.159Z,88.60
2017-12-16T13:40:39.875Z,87.00
2017-12-16T13:43:10.604Z,86.60
2017-12-16T13:45:40.680Z,86.40
2017-12-16T13:48:10.011Z,86.40
2017-12-16T13:50:39.619Z,85.60
2017-12-16T13:53:09.749Z,86.30
2017-12-16T13:55:40.008Z,85.80
2017-12-16T13:58:09.250Z,85.80
2017-12-16T14:00:40.937Z,86.40
2017-12-16T14:03:10.874Z,86.40
2017-12-16T14:05:39.876Z,86.20
2017-12-16T14:08:08.968Z,87.00
2017-12-16T14:10:38.753Z,86.00
2017-12-16T14:13:17.645Z,85.50
2017-12-16T14:16:02.240Z,82.80
2017-12-16T14:18:32.119Z,82.80
2017-12-16T14:21:04.422Z,80.50
2017-12-16T14:23:34.034Z,79.80
2017-12-16T14:26:03.188Z,78.20
2017-12-16T14:28:32.606Z,78.40
2017-12-16T14:31:02.783Z,79.90
2017-12-16T14:33:37.707Z,80.90
2017-12-16T14:36:08.590Z,82.40
2017-12-16T14:38:38.558Z,84.10
2017-12-16T14:41:09.122Z,84.90
2017-12-16T14:43:38.601Z,85.40
2017-12-16T14:46:11.080Z,85.70
2017-12-16T14:48:41.629Z,86.00
2017-12-16T14:51:14.117Z,86.50
2017-12-16T14:53:43.288Z,87.00
2017-12-16T14:56:12.612Z,87.10
2017-12-16T14:58:45.417Z,87.00
2017-12-16T15:01:15.587Z,87.20
2017-12-16T15:03:47.952Z,87.20
2017-12-16T15:06:18.325Z,88.30
2017-12-16T15:08:48.856Z,88.50
2017-12-16T15:11:20.707Z,88.70
2017-12-16T15:13:49.996Z,88.70
2017-12-16T15:16:19.280Z,88.70
2017-12-16T15:18:50.465Z,88.60
2017-12-16T15:21:20.900Z,89.00
2017-12-16T15:23:50.189Z,88.70
2017-12-16T15:26:25.768Z,88.20
2017-12-16T15:29:02.275Z,88.10
2017-12-16T15:31:33.352Z,89.10
2017-12-16T15:34:03.629Z,89.50
2017-12-16T15:36:33.829Z,88.80
2017-12-16T15:39:03.716Z,88.30
2017-12-16T15:41:34.139Z,88.90
2017-12-16T15:44:05.221Z,88.70
2017-12-16T15:46:34.781Z,88.70
2017-12-16T15:49:04.456Z,88.60
2017-12-16T15:51:45.647Z,88.80
2017-12-16T15:54:27.958Z,88.20
2017-12-16T15:56:57.897Z,88.40
2017-12-16T15:59:28.453Z,88.60
2017-12-16T16:01:57.942Z,88.60
2017-12-16T16:04:28.132Z,89.30
2017-12-16T16:06:57.528Z,89.30
2017-12-16T16:09:27.324Z,89.60
2017-12-16T16:11:58.002Z,89.70
2017-12-16T16:14:32.913Z,90.50
2017-12-16T16:17:10.168Z,90.90
2017-12-16T16:19:40.940Z,91.30
2017-12-16T16:22:10.918Z,91.40
2017-12-16T16:24:42.688Z,91.40
2017-12-16T16:27:11.981Z,92.70
2017-12-16T16:29:42.610Z,93.30
2017-12-16T16:32:23.242Z,93.60
2017-12-16T16:35:00.923Z,94.00
2017-12-16T16:37:30.258Z,94.80
2017-12-16T16:39:59.499Z,94.60
2017-12-16T16:42:29.211Z,94.80
2017-12-16T16:44:58.627Z,95.00
2017-12-16T16:47:27.875Z,95.20
2017-12-16T16:49:58.296Z,95.10
2017-12-16T16:52:27.765Z,95.10
2017-12-16T16:54:57.231Z,94.60
2017-12-16T16:57:27.046Z,94.80
2017-12-16T16:59:57.255Z,95.10
2017-12-16T17:02:26.992Z,95.50
2017-12-16T17:04:56.116Z,95.40
2017-12-16T17:07:28.700Z,95.30
2017-12-16T17:09:58.742Z,95.00
2017-12-16T17:12:27.915Z,94.70
2017-12-16T17:14:57.855Z,94.70
2017-12-16T17:17:27.502Z,94.60
2017-12-16T17:19:57.356Z,95.20
2017-12-16T17:22:27.137Z,94.80
2017-12-16T17:24:56.304Z,94.80
2017-12-16T17:27:25.399Z,95.00
2017-12-16T17:29:54.830Z,95.30
2017-12-16T17:32:24.011Z,95.20
2017-12-16T17:34:53.059Z,95.40
2017-12-16T17:37:23.128Z,95.40
2017-12-16T17:39:52.354Z,95.30
2017-12-16T17:42:22.957Z,94.90
2017-12-16T17:44:52.698Z,95.30
2017-12-16T17:47:43.377Z,95.10
2017-12-16T17:50:34.115Z,95.10
2017-12-16T17:53:29.527Z,95.30
2017-12-16T17:55:59.147Z,95.30
2017-12-16T17:58:31.951Z,95.70
2017-12-16T18:01:01.858Z,95.40
2017-12-16T18:03:31.024Z,95.60
2017-12-16T18:06:01.194Z,95.20
2017-12-16T18:08:30.244Z,95.10
2017-12-16T18:10:59.540Z,95.20
2017-12-16T18:13:29.697Z,95.30
2017-12-16T18:15:59.924Z,95.30
2017-12-16T18:18:29.218Z,94.70
2017-12-16T18:21:00.769Z,95.00
2017-12-16T18:23:32.381Z,94.70
2017-12-16T18:26:10.658Z,94.50
2017-12-16T18:28:44.746Z,94.50
2017-12-16T18:31:15.917Z,94.30
2017-12-16T18:33:47.637Z,94.90
2017-12-16T18:36:30.641Z,94.80
2017-12-16T18:39:03.197Z,94.70
2017-12-16T18:41:34.489Z,94.90
2017-12-16T18:44:04.611Z,94.10
2017-12-16T18:46:37.411Z,94.10
2017-12-16T18:49:11.670Z,94.30
2017-12-16T18:51:49.107Z,94.40
2017-12-16T18:54:19.690Z,94.40
2017-12-16T18:56:50.278Z,93.90
2017-12-16T18:59:26.240Z,94.40
2017-12-16T19:02:06.438Z,94.00
2017-12-16T19:04:43.477Z,94.20
2017-12-16T19:07:19.584Z,94.00
2017-12-16T19:09:52.191Z,94.00
2017-12-16T19:12:24.261Z,93.80
2017-12-16T19:14:57.404Z,93.70
2017-12-16T19:17:26.755Z,94.10
2017-12-16T19:19:56.246Z,94.00
2017-12-16T19:22:26.477Z,93.50
2017-12-16T19:24:59.145Z,93.80
2017-12-16T19:27:29.136Z,93.80
2017-12-16T19:29:58.545Z,93.80
2017-12-16T19:32:29.129Z,93.70
2017-12-16T19:34:58.634Z,93.70
2017-12-16T19:37:28.019Z,93.80
2017-12-16T19:39:57.510Z,94.10
2017-12-16T19:42:28.174Z,93.40
2017-12-16T19:44:57.771Z,93.40
2017-12-16T19:47:33.596Z,93.90
2017-12-16T19:50:09.597Z,93.40
2017-12-16T19:52:51.156Z,93.50
2017-12-16T19:55:32.376Z,93.80
2017-12-16T19:58:09.744Z,93.80
2017-12-16T20:00:42.378Z,93.80
2017-12-16T20:03:12.540Z,93.50
2017-12-16T20:05:42.172Z,93.80
2017-12-16T20:08:13.630Z,93.40
2017-12-16T20:10:48.428Z,93.60
2017-12-16T20:13:27.964Z,93.60
2017-12-16T20:15:57.256Z,93.70
2017-12-16T20:18:31.855Z,93.50
2017-12-16T20:21:03.961Z,93.60
2017-12-16T20:23:36.567Z,93.50
2017-12-16T20:26:09.612Z,94.10
2017-12-16T20:28:42.652Z,93.90
2017-12-16T20:31:15.915Z,93.80
2017-12-16T20:33:45.589Z,93.70
2017-12-16T20:36:21.915Z,93.60
2017-12-16T20:38:55.621Z,93.50
2017-12-16T20:41:25.102Z,93.50
2017-12-16T20:43:56.305Z,93.80
2017-12-16T20:46:25.463Z,93.80
2017-12-16T20:48:55.429Z,94.10
2017-12-16T20:51:28.433Z,93.70
2017-12-16T20:53:58.070Z,94.70
2017-12-16T20:56:30.419Z,94.40
2017-12-16T20:59:01.906Z,94.40
2017-12-16T21:01:35.902Z,94.50
2017-12-16T21:04:30.274Z,94.10
2017-12-16T21:07:11.050Z,94.10
2017-12-16T21:09:48.695Z,94.00
2017-12-16T21:12:19.861Z,94.00
2017-12-16T21:14:50.633Z,94.20
2017-12-16T21:17:42.760Z,94.20
2017-12-16T21:20:20.779Z,94.40
2017-12-16T21:22:59.746Z,94.70
2017-12-16T21:25:53.730Z,94.40
2017-12-16T21:28:23.839Z,94.40
2017-12-16T21:30:56.944Z,94.00
2017-12-16T21:33:27.326Z,94.10
2017-12-16T21:35:58.071Z,94.10
2017-12-16T21:38:27.359Z,93.80
2017-12-16T21:41:03.272Z,93.80
2017-12-16T21:43:34.427Z,93.70
2017-12-16T21:46:04.672Z,94.30
2017-12-16T21:48:51.703Z,94.30
2017-12-16T21:54:39.363Z,93.90
2017-12-16T21:57:10.164Z,93.90
2017-12-16T21:59:45.499Z,93.50
2017-12-16T22:02:16.679Z,93.70
2017-12-16T22:04:50.893Z,93.80
2017-12-16T22:07:20.578Z,93.70
2017-12-16T22:09:52.356Z,93.60
2017-12-16T22:12:21.705Z,93.70
2017-12-16T22:14:54.480Z,93.90
2017-12-16T22:17:24.500Z,93.60
2017-12-16T22:19:55.686Z,94.00
2017-12-16T22:22:25.259Z,94.00
2017-12-16T22:24:59.477Z,94.10
2017-12-16T22:27:29.403Z,94.10
2017-12-16T22:29:59.081Z,94.30
2017-12-16T22:32:30.438Z,94.60
2017-12-16T22:35:01.157Z,94.40
2017-12-16T22:37:30.703Z,94.40
2017-12-16T22:40:00.884Z,94.40
2017-12-16T22:42:31.018Z,94.40
2017-12-16T22:45:12.150Z,95.00
2017-12-16T22:47:52.156Z,94.90
2017-12-16T22:50:23.672Z,94.80
2017-12-16T22:52:55.989Z,94.80
2017-12-16T22:55:26.465Z,94.70
2017-12-16T22:57:57.943Z,94.70
2017-12-16T23:00:28.092Z,94.50
2017-12-16T23:02:59.619Z,94.60
2017-12-16T23:05:40.610Z,94.60
2017-12-16T23:08:19.538Z,94.60
2017-12-16T23:10:51.195Z,94.90
2017-12-16T23:13:22.329Z,94.40
2017-12-16T23:15:54.529Z,94.40
2017-12-16T23:18:25.540Z,94.40
2017-12-16T23:20:56.492Z,94.70
2017-12-16T23:23:27.225Z,94.30
2017-12-16T23:25:57.061Z,94.60
2017-12-16T23:28:26.575Z,94.40
2017-12-16T23:30:56.651Z,94.50
2017-12-16T23:33:27.984Z,94.10
2017-12-16T23:36:04.806Z,94.40
2017-12-16T23:38:42.462Z,94.40
2017-12-16T23:41:13.587Z,94.40
2017-12-16T23:43:48.876Z,95.00
2017-12-16T23:46:19.202Z,94.40
2017-12-16T23:48:50.976Z,94.50
2017-12-16T23:51:27.309Z,94.10
2017-12-16T23:53:59.047Z,94.60
2017-12-16T23:56:30.772Z,94.10
2017-12-16T23:59:04.990Z,94.10
